sensor_id;sensor_type;location;lat;lon;timestamp;P1;durP1;ratioP1;P2;durP2;ratioP2
5811;SDS011;2932;52.400;9.558;2023-06-22T00:00:45;10.38;;;9.38;;
5811;SDS011;2932;52.400;9.558;2023-06-22T00:03:11;9.57;;;8.75;;
5811;SDS011;2932;52.400;9.558;2023-06-22T00:05:36;13.13;;;10.05;;
5811;SDS011;2932;52.400;9.558;2023-06-22T00:08:02;10.30;;;9.30;;
5811;SDS011;2932;52.400;9.558;2023-06-22T00:10:29;9.90;;;8.95;;
5811;SDS011;2932;52.400;9.558;2023-06-22T00:12:55;10.98;;;9.70;;
5811;SDS011;2932;52.400;9.558;2023-06-22T00:15:20;10.65;;;9.68;;
5811;SDS011;2932;52.400;9.558;2023-06-22T00:17:45;10.55;;;9.65;;
5811;SDS011;2932;52.400;9.558;2023-06-22T00:20:11;10.88;;;9.77;;
5811;SDS011;2932;52.400;9.558;2023-06-22T00:22:36;10.82;;;9.85;;
5811;SDS011;2932;52.400;9.558;2023-06-22T00:25:05;10.68;;;9.77;;
5811;SDS011;2932;52.400;9.558;2023-06-22T00:27:31;10.32;;;9.40;;
5811;SDS011;2932;52.400;9.558;2023-06-22T00:29:57;11.32;;;10.13;;
5811;SDS011;2932;52.400;9.558;2023-06-22T00:32:22;10.45;;;9.55;;
5811;SDS011;2932;52.400;9.558;2023-06-22T00:34:48;11.60;;;10.43;;
5811;SDS011;2932;52.400;9.558;2023-06-22T00:37:13;11.50;;;10.45;;
5811;SDS011;2932;52.400;9.558;2023-06-22T00:39:38;11.45;;;10.35;;
5811;SDS011;2932;52.400;9.558;2023-06-22T00:42:04;11.50;;;10.50;;
5811;SDS011;2932;52.400;9.558;2023-06-22T00:44:29;11.02;;;9.95;;
5811;SDS011;2932;52.400;9.558;2023-06-22T00:46:55;10.50;;;9.35;;
5811;SDS011;2932;52.400;9.558;2023-06-22T00:49:23;11.27;;;10.27;;
5811;SDS011;2932;52.400;9.558;2023-06-22T00:51:49;11.65;;;10.55;;
5811;SDS011;2932;52.400;9.558;2023-06-22T00:54:14;12.40;;;11.20;;
5811;SDS011;2932;52.400;9.558;2023-06-22T00:56:40;12.65;;;11.45;;
5811;SDS011;2932;52.400;9.558;2023-06-22T00:59:06;11.23;;;10.23;;
5811;SDS011;2932;52.400;9.558;2023-06-22T01:01:31;11.10;;;10.10;;
5811;SDS011;2932;52.400;9.558;2023-06-22T01:03:59;10.88;;;9.75;;
5811;SDS011;2932;52.400;9.558;2023-06-22T01:06:29;10.32;;;9.32;;
5811;SDS011;2932;52.400;9.558;2023-06-22T01:09:06;10.40;;;9.27;;
5811;SDS011;2932;52.400;9.558;2023-06-22T01:11:48;10.25;;;9.18;;
5811;SDS011;2932;52.400;9.558;2023-06-22T01:14:35;9.95;;;9.05;;
5811;SDS011;2932;52.400;9.558;2023-06-22T01:17:07;10.60;;;9.60;;
5811;SDS011;2932;52.400;9.558;2023-06-22T01:22:08;9.90;;;9.00;;
5811;SDS011;2932;52.400;9.558;2023-06-22T01:30:02;9.68;;;8.68;;
5811;SDS011;2932;52.400;9.558;2023-06-22T01:32:31;8.98;;;8.15;;
5811;SDS011;2932;52.400;9.558;2023-06-22T01:35:01;9.48;;;8.63;;
5811;SDS011;2932;52.400;9.558;2023-06-22T01:37:30;8.90;;;8.10;;
5811;SDS011;2932;52.400;9.558;2023-06-22T01:39:57;9.02;;;8.23;;
5811;SDS011;2932;52.400;9.558;2023-06-22T01:42:24;9.32;;;8.35;;
5811;SDS011;2932;52.400;9.558;2023-06-22T01:44:50;9.63;;;8.60;;
5811;SDS011;2932;52.400;9.558;2023-06-22T01:47:22;8.88;;;8.07;;
5811;SDS011;2932;52.400;9.558;2023-06-22T01:49:48;8.88;;;8.00;;
5811;SDS011;2932;52.400;9.558;2023-06-22T01:52:16;9.75;;;8.70;;
5811;SDS011;2932;52.400;9.558;2023-06-22T01:54:42;9.48;;;8.55;;
5811;SDS011;2932;52.400;9.558;2023-06-22T01:57:08;10.75;;;9.02;;
5811;SDS011;2932;52.400;9.558;2023-06-22T01:59:37;10.15;;;9.13;;
5811;SDS011;2932;52.400;9.558;2023-06-22T02:05:19;11.00;;;9.27;;
5811;SDS011;2932;52.400;9.558;2023-06-22T02:07:52;10.48;;;9.57;;
5811;SDS011;2932;52.400;9.558;2023-06-22T02:10:20;10.18;;;9.18;;
5811;SDS011;2932;52.400;9.558;2023-06-22T02:12:48;10.15;;;9.25;;
5811;SDS011;2932;52.400;9.558;2023-06-22T02:15:15;10.30;;;9.23;;
5811;SDS011;2932;52.400;9.558;2023-06-22T02:17:42;9.93;;;9.02;;
5811;SDS011;2932;52.400;9.558;2023-06-22T02:20:12;10.35;;;8.88;;
5811;SDS011;2932;52.400;9.558;2023-06-22T02:22:38;11.80;;;10.60;;
5811;SDS011;2932;52.400;9.558;2023-06-22T02:25:03;11.10;;;9.80;;
5811;SDS011;2932;52.400;9.558;2023-06-22T02:27:29;11.45;;;10.27;;
5811;SDS011;2932;52.400;9.558;2023-06-22T02:29:54;10.73;;;9.73;;
5811;SDS011;2932;52.400;9.558;2023-06-22T02:34:48;10.98;;;9.73;;
5811;SDS011;2932;52.400;9.558;2023-06-22T02:37:13;11.85;;;9.40;;
5811;SDS011;2932;52.400;9.558;2023-06-22T02:39:40;10.50;;;9.55;;
5811;SDS011;2932;52.400;9.558;2023-06-22T02:42:05;10.77;;;9.77;;
5811;SDS011;2932;52.400;9.558;2023-06-22T02:44:31;10.40;;;9.40;;
5811;SDS011;2932;52.400;9.558;2023-06-22T02:46:56;10.98;;;9.93;;
5811;SDS011;2932;52.400;9.558;2023-06-22T02:49:22;11.85;;;10.15;;
5811;SDS011;2932;52.400;9.558;2023-06-22T02:51:48;10.68;;;9.57;;
5811;SDS011;2932;52.400;9.558;2023-06-22T02:54:13;10.68;;;9.20;;
5811;SDS011;2932;52.400;9.558;2023-06-22T02:56:39;12.45;;;9.63;;
5811;SDS011;2932;52.400;9.558;2023-06-22T02:59:05;11.70;;;9.15;;
5811;SDS011;2932;52.400;9.558;2023-06-22T03:01:31;12.43;;;9.57;;
5811;SDS011;2932;52.400;9.558;2023-06-22T03:04:02;13.07;;;9.90;;
5811;SDS011;2932;52.400;9.558;2023-06-22T03:06:28;10.18;;;9.18;;
5811;SDS011;2932;52.400;9.558;2023-06-22T03:09:01;12.68;;;10.30;;
5811;SDS011;2932;52.400;9.558;2023-06-22T03:11:30;10.43;;;9.00;;
5811;SDS011;2932;52.400;9.558;2023-06-22T03:13:59;10.18;;;9.15;;
5811;SDS011;2932;52.400;9.558;2023-06-22T03:16:25;12.65;;;9.13;;
5811;SDS011;2932;52.400;9.558;2023-06-22T03:18:51;13.13;;;9.35;;
5811;SDS011;2932;52.400;9.558;2023-06-22T03:21:16;11.43;;;9.50;;
5811;SDS011;2932;52.400;9.558;2023-06-22T03:23:42;10.55;;;9.60;;
5811;SDS011;2932;52.400;9.558;2023-06-22T03:26:08;9.40;;;8.50;;
5811;SDS011;2932;52.400;9.558;2023-06-22T03:28:34;12.02;;;9.32;;
5811;SDS011;2932;52.400;9.558;2023-06-22T03:30:59;11.35;;;10.18;;
5811;SDS011;2932;52.400;9.558;2023-06-22T03:33:25;11.95;;;9.82;;
5811;SDS011;2932;52.400;9.558;2023-06-22T03:35:50;11.23;;;9.40;;
5811;SDS011;2932;52.400;9.558;2023-06-22T03:38:16;10.48;;;9.40;;
5811;SDS011;2932;52.400;9.558;2023-06-22T03:40:42;9.73;;;8.82;;
5811;SDS011;2932;52.400;9.558;2023-06-22T03:43:07;10.77;;;9.77;;
5811;SDS011;2932;52.400;9.558;2023-06-22T03:45:33;13.95;;;9.25;;
5811;SDS011;2932;52.400;9.558;2023-06-22T03:47:58;8.93;;;8.00;;
5811;SDS011;2932;52.400;9.558;2023-06-22T03:50:23;9.93;;;8.93;;
5811;SDS011;2932;52.400;9.558;2023-06-22T03:52:49;10.45;;;9.48;;
5811;SDS011;2932;52.400;9.558;2023-06-22T03:55:16;10.93;;;9.73;;
5811;SDS011;2932;52.400;9.558;2023-06-22T03:57:41;11.30;;;9.32;;
5811;SDS011;2932;52.400;9.558;2023-06-22T04:00:07;11.05;;;9.63;;
5811;SDS011;2932;52.400;9.558;2023-06-22T04:02:33;10.85;;;9.73;;
5811;SDS011;2932;52.400;9.558;2023-06-22T04:04:58;11.00;;;9.90;;
5811;SDS011;2932;52.400;9.558;2023-06-22T04:07:23;10.55;;;9.57;;
5811;SDS011;2932;52.400;9.558;2023-06-22T04:09:49;11.23;;;9.15;;
5811;SDS011;2932;52.400;9.558;2023-06-22T04:12:14;13.02;;;10.15;;
5811;SDS011;2932;52.400;9.558;2023-06-22T04:14:39;10.45;;;9.43;;
5811;SDS011;2932;52.400;9.558;2023-06-22T04:17:05;11.82;;;9.52;;
5811;SDS011;2932;52.400;9.558;2023-06-22T04:19:30;12.43;;;9.57;;
5811;SDS011;2932;52.400;9.558;2023-06-22T04:21:56;10.07;;;9.18;;
5811;SDS011;2932;52.400;9.558;2023-06-22T04:24:21;15.00;;;13.40;;
5811;SDS011;2932;52.400;9.558;2023-06-22T04:26:46;11.30;;;9.73;;
5811;SDS011;2932;52.400;9.558;2023-06-22T04:29:12;10.55;;;9.45;;
5811;SDS011;2932;52.400;9.558;2023-06-22T04:31:38;10.68;;;9.65;;
5811;SDS011;2932;52.400;9.558;2023-06-22T04:34:04;12.82;;;9.52;;
5811;SDS011;2932;52.400;9.558;2023-06-22T04:36:37;10.48;;;9.43;;
5811;SDS011;2932;52.400;9.558;2023-06-22T04:39:07;11.40;;;10.30;;
5811;SDS011;2932;52.400;9.558;2023-06-22T04:41:36;11.80;;;10.02;;
5811;SDS011;2932;52.400;9.558;2023-06-22T04:44:14;10.52;;;9.52;;
5811;SDS011;2932;52.400;9.558;2023-06-22T04:46:56;10.45;;;8.93;;
5811;SDS011;2932;52.400;9.558;2023-06-22T04:49:28;11.50;;;9.50;;
5811;SDS011;2932;52.400;9.558;2023-06-22T04:52:05;9.80;;;8.90;;
5811;SDS011;2932;52.400;9.558;2023-06-22T04:54:33;10.20;;;9.20;;
5811;SDS011;2932;52.400;9.558;2023-06-22T04:57:05;9.93;;;8.85;;
5811;SDS011;2932;52.400;9.558;2023-06-22T04:59:35;9.90;;;8.98;;
5811;SDS011;2932;52.400;9.558;2023-06-22T05:02:04;9.30;;;8.48;;
5811;SDS011;2932;52.400;9.558;2023-06-22T05:04:30;9.80;;;8.85;;
5811;SDS011;2932;52.400;9.558;2023-06-22T05:06:56;9.38;;;8.35;;
5811;SDS011;2932;52.400;9.558;2023-06-22T05:09:22;11.75;;;10.30;;
5811;SDS011;2932;52.400;9.558;2023-06-22T05:11:49;8.82;;;7.82;;
5811;SDS011;2932;52.400;9.558;2023-06-22T05:14:15;12.30;;;9.15;;
5811;SDS011;2932;52.400;9.558;2023-06-22T05:16:41;9.30;;;8.40;;
5811;SDS011;2932;52.400;9.558;2023-06-22T05:19:07;9.25;;;8.43;;
5811;SDS011;2932;52.400;9.558;2023-06-22T05:21:33;7.80;;;7.00;;
5811;SDS011;2932;52.400;9.558;2023-06-22T05:23:58;9.80;;;8.57;;
5811;SDS011;2932;52.400;9.558;2023-06-22T05:26:27;9.55;;;7.38;;
5811;SDS011;2932;52.400;9.558;2023-06-22T05:28:53;9.45;;;7.75;;
5811;SDS011;2932;52.400;9.558;2023-06-22T05:31:19;8.48;;;7.25;;
5811;SDS011;2932;52.400;9.558;2023-06-22T05:33:45;9.63;;;7.57;;
5811;SDS011;2932;52.400;9.558;2023-06-22T05:36:11;8.02;;;7.22;;
5811;SDS011;2932;52.400;9.558;2023-06-22T05:38:38;8.55;;;7.85;;
5811;SDS011;2932;52.400;9.558;2023-06-22T05:41:04;9.68;;;8.50;;
5811;SDS011;2932;52.400;9.558;2023-06-22T05:43:30;10.32;;;9.32;;
5811;SDS011;2932;52.400;9.558;2023-06-22T05:45:56;9.25;;;8.35;;
5811;SDS011;2932;52.400;9.558;2023-06-22T05:48:21;10.55;;;9.30;;
5811;SDS011;2932;52.400;9.558;2023-06-22T05:50:47;9.40;;;8.45;;
5811;SDS011;2932;52.400;9.558;2023-06-22T05:53:12;11.25;;;9.13;;
5811;SDS011;2932;52.400;9.558;2023-06-22T05:55:38;9.60;;;8.65;;
5811;SDS011;2932;52.400;9.558;2023-06-22T05:58:03;9.63;;;8.73;;
5811;SDS011;2932;52.400;9.558;2023-06-22T06:00:29;8.98;;;8.05;;
5811;SDS011;2932;52.400;9.558;2023-06-22T06:02:55;9.20;;;8.30;;
5811;SDS011;2932;52.400;9.558;2023-06-22T06:05:20;8.85;;;7.95;;
5811;SDS011;2932;52.400;9.558;2023-06-22T06:07:46;11.18;;;9.98;;
5811;SDS011;2932;52.400;9.558;2023-06-22T06:10:11;10.02;;;9.10;;
5811;SDS011;2932;52.400;9.558;2023-06-22T06:12:37;9.43;;;8.60;;
5811;SDS011;2932;52.400;9.558;2023-06-22T06:15:03;9.52;;;8.63;;
5811;SDS011;2932;52.400;9.558;2023-06-22T06:17:29;8.65;;;7.15;;
5811;SDS011;2932;52.400;9.558;2023-06-22T06:19:54;8.75;;;7.85;;
5811;SDS011;2932;52.400;9.558;2023-06-22T06:22:19;9.70;;;8.68;;
5811;SDS011;2932;52.400;9.558;2023-06-22T06:24:46;8.35;;;7.55;;
5811;SDS011;2932;52.400;9.558;2023-06-22T06:27:12;8.73;;;7.88;;
5811;SDS011;2932;52.400;9.558;2023-06-22T06:29:38;8.40;;;7.47;;
5811;SDS011;2932;52.400;9.558;2023-06-22T06:32:03;8.60;;;7.50;;
5811;SDS011;2932;52.400;9.558;2023-06-22T06:34:29;10.32;;;8.60;;
5811;SDS011;2932;52.400;9.558;2023-06-22T06:36:54;7.95;;;6.72;;
5811;SDS011;2932;52.400;9.558;2023-06-22T06:39:19;7.70;;;7.00;;
5811;SDS011;2932;52.400;9.558;2023-06-22T06:41:45;10.85;;;6.90;;
5811;SDS011;2932;52.400;9.558;2023-06-22T06:44:10;7.95;;;6.43;;
5811;SDS011;2932;52.400;9.558;2023-06-22T06:46:36;10.40;;;6.72;;
5811;SDS011;2932;52.400;9.558;2023-06-22T06:49:01;10.77;;;6.80;;
5811;SDS011;2932;52.400;9.558;2023-06-22T06:51:27;7.75;;;6.95;;
5811;SDS011;2932;52.400;9.558;2023-06-22T06:53:52;7.57;;;6.60;;
5811;SDS011;2932;52.400;9.558;2023-06-22T06:56:17;8.00;;;5.85;;
5811;SDS011;2932;52.400;9.558;2023-06-22T06:58:43;8.25;;;5.30;;
5811;SDS011;2932;52.400;9.558;2023-06-22T07:01:10;5.45;;;4.80;;
5811;SDS011;2932;52.400;9.558;2023-06-22T07:03:36;5.70;;;5.15;;
5811;SDS011;2932;52.400;9.558;2023-06-22T07:06:02;7.00;;;4.90;;
5811;SDS011;2932;52.400;9.558;2023-06-22T07:08:27;6.25;;;4.65;;
5811;SDS011;2932;52.400;9.558;2023-06-22T07:10:52;6.75;;;4.65;;
5811;SDS011;2932;52.400;9.558;2023-06-22T07:13:18;9.07;;;4.55;;
5811;SDS011;2932;52.400;9.558;2023-06-22T07:15:43;5.78;;;4.30;;
5811;SDS011;2932;52.400;9.558;2023-06-22T07:18:08;6.15;;;4.63;;
5811;SDS011;2932;52.400;9.558;2023-06-22T07:20:34;7.10;;;4.50;;
5811;SDS011;2932;52.400;9.558;2023-06-22T07:22:59;6.45;;;4.78;;
5811;SDS011;2932;52.400;9.558;2023-06-22T07:25:24;5.97;;;4.40;;
5811;SDS011;2932;52.400;9.558;2023-06-22T07:28:00;5.65;;;4.57;;
5811;SDS011;2932;52.400;9.558;2023-06-22T07:30:27;6.45;;;4.60;;
5811;SDS011;2932;52.400;9.558;2023-06-22T07:32:52;8.55;;;5.00;;
5811;SDS011;2932;52.400;9.558;2023-06-22T07:35:18;7.40;;;4.78;;
5811;SDS011;2932;52.400;9.558;2023-06-22T07:37:44;7.90;;;4.90;;
5811;SDS011;2932;52.400;9.558;2023-06-22T07:40:09;7.40;;;4.68;;
5811;SDS011;2932;52.400;9.558;2023-06-22T07:42:35;7.38;;;4.65;;
5811;SDS011;2932;52.400;9.558;2023-06-22T07:45:01;6.03;;;4.63;;
5811;SDS011;2932;52.400;9.558;2023-06-22T07:47:28;6.20;;;4.60;;
5811;SDS011;2932;52.400;9.558;2023-06-22T07:49:54;8.60;;;5.03;;
5811;SDS011;2932;52.400;9.558;2023-06-22T07:52:25;8.52;;;4.72;;
5811;SDS011;2932;52.400;9.558;2023-06-22T07:54:51;5.32;;;4.70;;
5811;SDS011;2932;52.400;9.558;2023-06-22T07:57:16;6.90;;;5.13;;
5811;SDS011;2932;52.400;9.558;2023-06-22T07:59:42;8.35;;;5.22;;
5811;SDS011;2932;52.400;9.558;2023-06-22T08:02:07;9.70;;;5.60;;
5811;SDS011;2932;52.400;9.558;2023-06-22T08:04:34;6.85;;;6.13;;
5811;SDS011;2932;52.400;9.558;2023-06-22T08:07:00;6.63;;;5.95;;
5811;SDS011;2932;52.400;9.558;2023-06-22T08:09:27;6.32;;;5.72;;
5811;SDS011;2932;52.400;9.558;2023-06-22T08:11:53;6.63;;;5.32;;
5811;SDS011;2932;52.400;9.558;2023-06-22T08:14:20;7.50;;;5.35;;
5811;SDS011;2932;52.400;9.558;2023-06-22T08:16:46;6.50;;;5.78;;
5811;SDS011;2932;52.400;9.558;2023-06-22T08:19:11;6.25;;;5.57;;
5811;SDS011;2932;52.400;9.558;2023-06-22T08:21:36;10.70;;;6.13;;
5811;SDS011;2932;52.400;9.558;2023-06-22T08:24:02;7.43;;;5.95;;
5811;SDS011;2932;52.400;9.558;2023-06-22T08:26:28;8.80;;;5.50;;
5811;SDS011;2932;52.400;9.558;2023-06-22T08:28:53;9.27;;;6.22;;
5811;SDS011;2932;52.400;9.558;2023-06-22T08:31:19;8.13;;;5.90;;
5811;SDS011;2932;52.400;9.558;2023-06-22T08:33:44;6.47;;;5.80;;
5811;SDS011;2932;52.400;9.558;2023-06-22T08:36:11;8.25;;;5.82;;
5811;SDS011;2932;52.400;9.558;2023-06-22T08:38:38;7.28;;;5.80;;
5811;SDS011;2932;52.400;9.558;2023-06-22T08:41:03;7.90;;;6.07;;
5811;SDS011;2932;52.400;9.558;2023-06-22T08:43:29;8.00;;;6.00;;
5811;SDS011;2932;52.400;9.558;2023-06-22T08:45:54;7.18;;;5.50;;
5811;SDS011;2932;52.400;9.558;2023-06-22T08:48:20;5.72;;;5.15;;
5811;SDS011;2932;52.400;9.558;2023-06-22T08:50:45;7.90;;;5.72;;
5811;SDS011;2932;52.400;9.558;2023-06-22T08:53:10;6.40;;;5.78;;
5811;SDS011;2932;52.400;9.558;2023-06-22T08:55:36;6.50;;;5.70;;
5811;SDS011;2932;52.400;9.558;2023-06-22T08:58:01;7.93;;;5.55;;
5811;SDS011;2932;52.400;9.558;2023-06-22T09:00:27;7.13;;;5.50;;
5811;SDS011;2932;52.400;9.558;2023-06-22T09:02:54;6.22;;;5.63;;
5811;SDS011;2932;52.400;9.558;2023-06-22T09:05:23;7.07;;;6.28;;
5811;SDS011;2932;52.400;9.558;2023-06-22T09:07:50;6.88;;;5.68;;
5811;SDS011;2932;52.400;9.558;2023-06-22T09:10:16;7.40;;;5.28;;
5811;SDS011;2932;52.400;9.558;2023-06-22T09:12:41;9.23;;;6.93;;
5811;SDS011;2932;52.400;9.558;2023-06-22T09:15:07;8.82;;;6.47;;
5811;SDS011;2932;52.400;9.558;2023-06-22T09:17:33;8.23;;;6.03;;
5811;SDS011;2932;52.400;9.558;2023-06-22T09:19:59;6.45;;;5.63;;
5811;SDS011;2932;52.400;9.558;2023-06-22T09:22:25;8.40;;;5.55;;
5811;SDS011;2932;52.400;9.558;2023-06-22T09:24:54;7.68;;;5.90;;
5811;SDS011;2932;52.400;9.558;2023-06-22T09:27:20;7.07;;;6.38;;
5811;SDS011;2932;52.400;9.558;2023-06-22T09:29:45;9.88;;;6.85;;
5811;SDS011;2932;52.400;9.558;2023-06-22T09:32:11;9.23;;;6.90;;
5811;SDS011;2932;52.400;9.558;2023-06-22T09:34:36;8.40;;;6.70;;
5811;SDS011;2932;52.400;9.558;2023-06-22T09:37:01;8.02;;;5.93;;
5811;SDS011;2932;52.400;9.558;2023-06-22T09:39:27;9.70;;;6.53;;
5811;SDS011;2932;52.400;9.558;2023-06-22T09:41:52;7.60;;;6.47;;
5811;SDS011;2932;52.400;9.558;2023-06-22T09:44:17;9.10;;;6.25;;
5811;SDS011;2932;52.400;9.558;2023-06-22T09:46:43;8.25;;;7.45;;
5811;SDS011;2932;52.400;9.558;2023-06-22T09:49:09;10.70;;;7.47;;
5811;SDS011;2932;52.400;9.558;2023-06-22T09:51:34;8.13;;;6.85;;
5811;SDS011;2932;52.400;9.558;2023-06-22T09:53:59;6.63;;;6.03;;
5811;SDS011;2932;52.400;9.558;2023-06-22T09:56:25;7.60;;;6.90;;
5811;SDS011;2932;52.400;9.558;2023-06-22T09:58:53;9.20;;;7.38;;
5811;SDS011;2932;52.400;9.558;2023-06-22T10:01:18;9.52;;;6.30;;
5811;SDS011;2932;52.400;9.558;2023-06-22T10:03:45;7.97;;;6.63;;
5811;SDS011;2932;52.400;9.558;2023-06-22T10:06:10;7.68;;;6.65;;
5811;SDS011;2932;52.400;9.558;2023-06-22T10:08:36;11.88;;;7.03;;
5811;SDS011;2932;52.400;9.558;2023-06-22T10:11:01;10.25;;;7.07;;
5811;SDS011;2932;52.400;9.558;2023-06-22T10:13:28;8.63;;;6.63;;
5811;SDS011;2932;52.400;9.558;2023-06-22T10:15:53;10.45;;;6.95;;
5811;SDS011;2932;52.400;9.558;2023-06-22T10:18:19;8.02;;;7.22;;
5811;SDS011;2932;52.400;9.558;2023-06-22T10:20:48;9.25;;;6.65;;
5811;SDS011;2932;52.400;9.558;2023-06-22T10:23:18;8.20;;;7.35;;
5811;SDS011;2932;52.400;9.558;2023-06-22T10:25:44;10.63;;;7.60;;
5811;SDS011;2932;52.400;9.558;2023-06-22T10:28:10;8.60;;;7.10;;
5811;SDS011;2932;52.400;9.558;2023-06-22T10:30:37;10.27;;;7.03;;
5811;SDS011;2932;52.400;9.558;2023-06-22T10:33:03;10.32;;;8.32;;
5811;SDS011;2932;52.400;9.558;2023-06-22T10:35:28;9.77;;;7.10;;
5811;SDS011;2932;52.400;9.558;2023-06-22T10:37:54;8.90;;;8.02;;
5811;SDS011;2932;52.400;9.558;2023-06-22T10:40:20;8.35;;;7.40;;
5811;SDS011;2932;52.400;9.558;2023-06-22T10:42:46;8.40;;;7.47;;
5811;SDS011;2932;52.400;9.558;2023-06-22T10:45:11;7.72;;;6.30;;
5811;SDS011;2932;52.400;9.558;2023-06-22T10:47:37;9.52;;;7.78;;
5811;SDS011;2932;52.400;9.558;2023-06-22T10:50:02;13.18;;;7.70;;
5811;SDS011;2932;52.400;9.558;2023-06-22T10:52:29;9.75;;;7.70;;
5811;SDS011;2932;52.400;9.558;2023-06-22T10:54:54;10.77;;;8.05;;
5811;SDS011;2932;52.400;9.558;2023-06-22T10:57:19;10.18;;;8.25;;
5811;SDS011;2932;52.400;9.558;2023-06-22T10:59:46;10.27;;;8.45;;
5811;SDS011;2932;52.400;9.558;2023-06-22T11:02:12;7.88;;;7.07;;
5811;SDS011;2932;52.400;9.558;2023-06-22T11:04:37;11.88;;;8.00;;
5811;SDS011;2932;52.400;9.558;2023-06-22T11:07:03;12.38;;;8.45;;
5811;SDS011;2932;52.400;9.558;2023-06-22T11:09:28;8.90;;;7.93;;
5811;SDS011;2932;52.400;9.558;2023-06-22T11:11:55;9.90;;;8.85;;
5811;SDS011;2932;52.400;9.558;2023-06-22T11:14:21;10.65;;;8.80;;
5811;SDS011;2932;52.400;9.558;2023-06-22T11:16:47;14.57;;;8.95;;
5811;SDS011;2932;52.400;9.558;2023-06-22T11:19:12;9.40;;;8.43;;
5811;SDS011;2932;52.400;9.558;2023-06-22T11:21:38;9.75;;;8.05;;
5811;SDS011;2932;52.400;9.558;2023-06-22T11:24:03;10.73;;;8.45;;
5811;SDS011;2932;52.400;9.558;2023-06-22T11:26:29;12.10;;;9.20;;
5811;SDS011;2932;52.400;9.558;2023-06-22T11:28:55;8.55;;;7.75;;
5811;SDS011;2932;52.400;9.558;2023-06-22T11:31:20;8.77;;;7.75;;
5811;SDS011;2932;52.400;9.558;2023-06-22T11:33:46;10.07;;;8.68;;
5811;SDS011;2932;52.400;9.558;2023-06-22T11:36:12;10.57;;;9.30;;
5811;SDS011;2932;52.400;9.558;2023-06-22T11:38:38;9.80;;;8.80;;
5811;SDS011;2932;52.400;9.558;2023-06-22T11:41:07;9.82;;;8.20;;
5811;SDS011;2932;52.400;9.558;2023-06-22T11:43:34;8.98;;;8.05;;
5811;SDS011;2932;52.400;9.558;2023-06-22T11:46:00;9.75;;;8.73;;
5811;SDS011;2932;52.400;9.558;2023-06-22T11:48:26;14.00;;;9.45;;
5811;SDS011;2932;52.400;9.558;2023-06-22T11:50:51;10.32;;;9.32;;
5811;SDS011;2932;52.400;9.558;2023-06-22T11:53:17;11.43;;;9.18;;
5811;SDS011;2932;52.400;9.558;2023-06-22T11:55:43;9.68;;;8.75;;
5811;SDS011;2932;52.400;9.558;2023-06-22T11:58:08;8.80;;;7.97;;
5811;SDS011;2932;52.400;9.558;2023-06-22T12:00:34;7.65;;;6.95;;
5811;SDS011;2932;52.400;9.558;2023-06-22T12:02:59;8.80;;;7.88;;
5811;SDS011;2932;52.400;9.558;2023-06-22T12:05:25;8.57;;;7.72;;
5811;SDS011;2932;52.400;9.558;2023-06-22T12:07:52;8.77;;;7.85;;
5811;SDS011;2932;52.400;9.558;2023-06-22T12:10:19;8.82;;;7.28;;
5811;SDS011;2932;52.400;9.558;2023-06-22T12:12:44;12.82;;;9.07;;
5811;SDS011;2932;52.400;9.558;2023-06-22T12:15:10;12.07;;;9.27;;
5811;SDS011;2932;52.400;9.558;2023-06-22T12:17:35;10.18;;;8.93;;
5811;SDS011;2932;52.400;9.558;2023-06-22T12:20:01;10.45;;;9.02;;
5811;SDS011;2932;52.400;9.558;2023-06-22T12:22:30;9.10;;;7.43;;
5811;SDS011;2932;52.400;9.558;2023-06-22T12:24:57;9.55;;;7.72;;
5811;SDS011;2932;52.400;9.558;2023-06-22T12:27:22;10.40;;;7.93;;
5811;SDS011;2932;52.400;9.558;2023-06-22T12:29:47;8.95;;;7.70;;
5811;SDS011;2932;52.400;9.558;2023-06-22T12:32:13;11.00;;;8.02;;
5811;SDS011;2932;52.400;9.558;2023-06-22T12:34:39;8.90;;;8.20;;
5811;SDS011;2932;52.400;9.558;2023-06-22T12:37:06;8.52;;;7.70;;
5811;SDS011;2932;52.400;9.558;2023-06-22T12:39:32;8.65;;;7.85;;
5811;SDS011;2932;52.400;9.558;2023-06-22T12:41:57;9.02;;;8.10;;
5811;SDS011;2932;52.400;9.558;2023-06-22T12:44:23;8.93;;;7.88;;
5811;SDS011;2932;52.400;9.558;2023-06-22T12:46:48;9.95;;;8.20;;
5811;SDS011;2932;52.400;9.558;2023-06-22T12:49:13;8.13;;;7.32;;
5811;SDS011;2932;52.400;9.558;2023-06-22T12:51:39;8.52;;;7.43;;
5811;SDS011;2932;52.400;9.558;2023-06-22T12:54:09;9.30;;;8.50;;
5811;SDS011;2932;52.400;9.558;2023-06-22T12:56:35;8.70;;;7.90;;
5811;SDS011;2932;52.400;9.558;2023-06-22T12:59:00;8.70;;;7.88;;
5811;SDS011;2932;52.400;9.558;2023-06-22T13:01:29;8.48;;;7.68;;
5811;SDS011;2932;52.400;9.558;2023-06-22T13:03:55;8.90;;;8.10;;
5811;SDS011;2932;52.400;9.558;2023-06-22T13:06:20;9.63;;;8.48;;
5811;SDS011;2932;52.400;9.558;2023-06-22T13:08:46;9.35;;;7.60;;
5811;SDS011;2932;52.400;9.558;2023-06-22T13:11:11;9.30;;;8.43;;
5811;SDS011;2932;52.400;9.558;2023-06-22T13:13:37;8.63;;;7.38;;
5811;SDS011;2932;52.400;9.558;2023-06-22T13:16:03;9.10;;;8.13;;
5811;SDS011;2932;52.400;9.558;2023-06-22T13:18:29;9.05;;;8.15;;
5811;SDS011;2932;52.400;9.558;2023-06-22T13:20:54;8.77;;;7.97;;
5811;SDS011;2932;52.400;9.558;2023-06-22T13:23:20;8.90;;;8.02;;
5811;SDS011;2932;52.400;9.558;2023-06-22T13:25:46;10.70;;;9.57;;
5811;SDS011;2932;52.400;9.558;2023-06-22T13:28:11;10.52;;;9.43;;
5811;SDS011;2932;52.400;9.558;2023-06-22T13:30:38;11.57;;;8.77;;
5811;SDS011;2932;52.400;9.558;2023-06-22T13:33:07;9.18;;;8.05;;
5811;SDS011;2932;52.400;9.558;2023-06-22T13:35:33;9.73;;;8.80;;
5811;SDS011;2932;52.400;9.558;2023-06-22T13:38:00;10.63;;;8.77;;
5811;SDS011;2932;52.400;9.558;2023-06-22T13:40:25;9.45;;;8.48;;
5811;SDS011;2932;52.400;9.558;2023-06-22T13:42:50;8.65;;;7.75;;
5811;SDS011;2932;52.400;9.558;2023-06-22T13:45:16;12.45;;;8.88;;
5811;SDS011;2932;52.400;9.558;2023-06-22T13:47:42;9.80;;;8.90;;
5811;SDS011;2932;52.400;9.558;2023-06-22T13:50:08;9.00;;;8.20;;
5811;SDS011;2932;52.400;9.558;2023-06-22T13:52:33;7.95;;;7.25;;
5811;SDS011;2932;52.400;9.558;2023-06-22T13:54:59;9.65;;;8.63;;
5811;SDS011;2932;52.400;9.558;2023-06-22T13:57:24;10.45;;;9.15;;
5811;SDS011;2932;52.400;9.558;2023-06-22T13:59:49;8.27;;;7.57;;
5811;SDS011;2932;52.400;9.558;2023-06-22T14:02:15;9.90;;;9.00;;
5811;SDS011;2932;52.400;9.558;2023-06-22T14:04:40;10.15;;;9.15;;
5811;SDS011;2932;52.400;9.558;2023-06-22T14:07:05;9.52;;;8.52;;
5811;SDS011;2932;52.400;9.558;2023-06-22T14:09:31;9.35;;;8.50;;
5811;SDS011;2932;52.400;9.558;2023-06-22T14:11:56;9.15;;;8.25;;
5811;SDS011;2932;52.400;9.558;2023-06-22T14:14:21;10.25;;;8.10;;
5811;SDS011;2932;52.400;9.558;2023-06-22T14:16:47;8.93;;;7.70;;
5811;SDS011;2932;52.400;9.558;2023-06-22T14:19:16;9.43;;;8.35;;
5811;SDS011;2932;52.400;9.558;2023-06-22T14:21:43;11.20;;;9.00;;
5811;SDS011;2932;52.400;9.558;2023-06-22T14:24:09;11.57;;;8.80;;
5811;SDS011;2932;52.400;9.558;2023-06-22T14:26:35;8.60;;;7.90;;
5811;SDS011;2932;52.400;9.558;2023-06-22T14:29:00;10.02;;;8.90;;
5811;SDS011;2932;52.400;9.558;2023-06-22T14:31:26;10.52;;;9.52;;
5811;SDS011;2932;52.400;9.558;2023-06-22T14:33:51;9.25;;;8.43;;
5811;SDS011;2932;52.400;9.558;2023-06-22T14:36:17;10.70;;;8.85;;
5811;SDS011;2932;52.400;9.558;2023-06-22T14:38:42;9.75;;;8.90;;
5811;SDS011;2932;52.400;9.558;2023-06-22T14:41:08;10.60;;;9.60;;
5811;SDS011;2932;52.400;9.558;2023-06-22T14:43:34;11.75;;;9.18;;
5811;SDS011;2932;52.400;9.558;2023-06-22T14:46:00;11.15;;;10.15;;
5811;SDS011;2932;52.400;9.558;2023-06-22T14:48:25;11.18;;;10.13;;
5811;SDS011;2932;52.400;9.558;2023-06-22T14:50:51;13.38;;;10.73;;
5811;SDS011;2932;52.400;9.558;2023-06-22T14:53:16;13.07;;;10.65;;
5811;SDS011;2932;52.400;9.558;2023-06-22T14:55:41;12.73;;;11.07;;
5811;SDS011;2932;52.400;9.558;2023-06-22T14:58:07;12.77;;;10.90;;
5811;SDS011;2932;52.400;9.558;2023-06-22T15:00:32;14.05;;;12.65;;
5811;SDS011;2932;52.400;9.558;2023-06-22T15:02:58;13.48;;;12.18;;
5811;SDS011;2932;52.400;9.558;2023-06-22T15:05:24;14.23;;;12.45;;
5811;SDS011;2932;52.400;9.558;2023-06-22T15:07:50;15.00;;;13.05;;
5811;SDS011;2932;52.400;9.558;2023-06-22T15:10:15;14.38;;;13.07;;
5811;SDS011;2932;52.400;9.558;2023-06-22T15:12:41;16.45;;;14.50;;
5811;SDS011;2932;52.400;9.558;2023-06-22T15:15:06;15.65;;;14.05;;